createdAt,value
2019-03-10T00:00:47.441Z,76.67
2019-03-10T00:01:47.438Z,75.84
2019-03-10T00:02:47.415Z,76.56
2019-03-10T00:03:47.466Z,76.35
2019-03-10T00:04:47.403Z,76.46
2019-03-10T00:05:47.389Z,76.67
2019-03-10T00:06:47.419Z,76.56
2019-03-10T00:07:47.373Z,76.56
2019-03-10T00:08:47.404Z,76.46
2019-03-10T00:09:47.344Z,76.77
2019-03-10T00:10:47.344Z,76.77
2019-03-10T00:11:47.317Z,76.67
2019-03-10T00:12:47.333Z,76.56
2019-03-10T00:13:47.302Z,76.56
2019-03-10T00:14:47.344Z,76.56
2019-03-10T00:15:47.274Z,76.25
2019-03-10T00:16:47.277Z,76.25
2019-03-10T00:17:47.255Z,75.95
2019-03-10T00:18:47.279Z,75.43
2019-03-10T00:19:47.298Z,75.12
2019-03-10T00:20:47.232Z,75.63
2019-03-10T00:21:47.213Z,75.74
2019-03-10T00:22:47.214Z,75.12
2019-03-10T00:23:47.190Z,75.22
2019-03-10T00:24:47.257Z,75.32
2019-03-10T00:25:47.166Z,74.81
2019-03-10T00:26:47.170Z,74.46
2019-03-10T00:27:47.170Z,74.81
2019-03-10T00:28:47.139Z,74.77
2019-03-10T00:29:47.247Z,74.60
2019-03-10T00:30:47.166Z,74.60
2019-03-10T00:31:47.099Z,74.67
2019-03-10T00:32:47.090Z,75.32
2019-03-10T00:33:47.087Z,75.32
2019-03-10T00:34:47.074Z,75.84
2019-03-10T00:35:47.132Z,75.63
2019-03-10T00:36:47.068Z,75.43
2019-03-10T00:37:47.039Z,75.32
2019-03-10T00:38:47.024Z,75.12
2019-03-10T00:39:47.013Z,75.01
2019-03-10T00:40:47.052Z,75.22
2019-03-10T00:41:47.021Z,75.32
2019-03-10T00:42:46.980Z,75.12
2019-03-10T00:43:46.969Z,75.84
2019-03-10T00:44:46.963Z,75.43
2019-03-10T00:45:46.984Z,75.74
2019-03-10T00:46:46.935Z,75.12
2019-03-10T00:47:46.989Z,75.32
2019-03-10T00:48:46.921Z,75.74
2019-03-10T00:49:46.918Z,75.43
2019-03-10T00:50:48.739Z,75.84
2019-03-10T00:51:46.947Z,75.74
2019-03-10T00:52:46.867Z,75.74
2019-03-10T00:53:46.910Z,75.74
2019-03-10T00:54:46.867Z,75.74
2019-03-10T00:55:46.852Z,75.12
2019-03-10T00:56:46.868Z,75.63
2019-03-10T00:57:46.816Z,75.63
2019-03-10T00:58:46.810Z,75.74
2019-03-10T00:59:46.831Z,75.84
2019-03-10T01:00:46.790Z,75.63
2019-03-10T01:01:46.828Z,75.74
2019-03-10T01:02:46.772Z,75.32
2019-03-10T01:03:46.763Z,75.74
2019-03-10T01:04:46.741Z,75.53
2019-03-10T01:05:46.768Z,75.32
2019-03-10T01:06:46.788Z,75.74
2019-03-10T01:07:46.714Z,75.12
2019-03-10T01:08:46.700Z,75.12
2019-03-10T01:09:46.681Z,76.04
2019-03-10T01:10:46.739Z,75.84
2019-03-10T01:11:46.705Z,75.63
2019-03-10T01:12:46.703Z,75.63
2019-03-10T01:13:46.649Z,76.35
2019-03-10T01:14:46.632Z,75.74
2019-03-10T01:15:46.625Z,75.95
2019-03-10T01:16:46.651Z,75.74
2019-03-10T01:17:46.597Z,75.74
2019-03-10T01:18:46.614Z,75.32
2019-03-10T01:19:46.571Z,75.63
2019-03-10T01:20:46.564Z,75.95
2019-03-10T01:21:46.587Z,75.74
2019-03-10T01:22:46.550Z,75.63
2019-03-10T01:23:46.548Z,75.84
2019-03-10T01:24:46.564Z,76.56
2019-03-10T01:25:46.513Z,76.56
2019-03-10T01:26:46.535Z,76.04
2019-03-10T01:27:46.491Z,76.77
2019-03-10T01:28:46.482Z,76.46
2019-03-10T01:29:46.479Z,76.67
2019-03-10T01:30:46.502Z,76.56
2019-03-10T01:31:46.503Z,76.56
2019-03-10T01:32:46.433Z,76.98
2019-03-10T01:33:46.424Z,76.46
2019-03-10T01:34:46.414Z,76.67
2019-03-10T01:35:46.401Z,76.46
2019-03-10T01:36:46.523Z,76.67
2019-03-10T01:37:46.383Z,76.46
2019-03-10T01:38:46.370Z,76.67
2019-03-10T01:39:46.361Z,76.90
2019-03-10T01:40:46.364Z,76.56
2019-03-10T01:41:46.338Z,76.25
2019-03-10T01:42:48.254Z,76.67
2019-03-10T01:43:46.311Z,76.46
2019-03-10T01:44:46.312Z,76.46
2019-03-10T01:45:46.294Z,76.56
2019-03-10T01:46:46.284Z,76.98
2019-03-10T01:47:46.318Z,76.15
2019-03-10T01:48:46.264Z,75.74
2019-03-10T01:49:46.277Z,76.04
2019-03-10T01:50:46.246Z,76.98
2019-03-10T01:51:46.224Z,75.84
2019-03-10T01:52:46.261Z,75.84
2019-03-10T01:53:46.203Z,75.74
2019-03-10T01:54:46.262Z,75.63
2019-03-10T01:55:46.187Z,75.53
2019-03-10T01:56:46.175Z,75.43
2019-03-10T01:57:46.243Z,75.43
2019-03-10T01:58:46.147Z,75.63
2019-03-10T01:59:46.139Z,75.95
2019-03-10T02:00:46.168Z,75.95
2019-03-10T02:01:46.123Z,75.01
2019-03-10T02:02:46.157Z,75.12
2019-03-10T02:03:46.100Z,75.32
2019-03-10T02:04:46.101Z,74.71
2019-03-10T02:05:46.111Z,74.81
2019-03-10T02:06:46.072Z,74.81
2019-03-10T02:07:46.120Z,74.91
2019-03-10T02:08:46.039Z,75.32
2019-03-10T02:09:46.039Z,74.91
2019-03-10T02:10:46.021Z,74.71
2019-03-10T02:11:46.061Z,74.71
2019-03-10T02:12:46.012Z,74.57
2019-03-10T02:13:46.056Z,74.40
2019-03-10T02:14:45.977Z,74.71
2019-03-10T02:15:45.972Z,74.81
2019-03-10T02:16:45.954Z,74.50
2019-03-10T02:17:45.952Z,74.88
2019-03-10T02:18:45.973Z,74.77
2019-03-10T02:19:45.966Z,74.81
2019-03-10T02:20:45.915Z,74.71
2019-03-10T02:21:45.901Z,74.60
2019-03-10T02:22:45.896Z,74.50
2019-03-10T02:23:45.888Z,75.32
2019-03-10T02:24:45.975Z,75.22
2019-03-10T02:25:45.872Z,75.32
2019-03-10T02:26:45.844Z,75.32
2019-03-10T02:27:45.839Z,75.32
2019-03-10T02:28:45.824Z,75.32
2019-03-10T02:29:45.847Z,75.74
2019-03-10T02:30:45.838Z,75.74
2019-03-10T02:31:45.799Z,75.84
2019-03-10T02:32:45.845Z,75.63
2019-03-10T02:33:45.768Z,75.63
2019-03-10T02:34:45.799Z,76.35
2019-03-10T02:35:45.762Z,76.04
2019-03-10T02:36:45.751Z,76.87
2019-03-10T02:37:45.771Z,75.74
2019-03-10T02:38:45.715Z,76.98
2019-03-10T02:39:45.755Z,76.67
2019-03-10T02:40:45.703Z,76.87
2019-03-10T02:41:45.708Z,76.98
2019-03-10T02:42:45.673Z,76.67
2019-03-10T02:43:45.699Z,76.67
2019-03-10T02:44:45.726Z,76.98
2019-03-10T02:45:45.650Z,76.67
2019-03-10T02:46:45.642Z,76.46
2019-03-10T02:47:45.614Z,76.67
2019-03-10T02:48:45.607Z,76.67
2019-03-10T02:49:46.264Z,76.67
2019-03-10T02:50:45.587Z,76.35
2019-03-10T02:51:45.577Z,76.35
2019-03-10T02:52:45.576Z,76.35
2019-03-10T02:53:45.560Z,76.25
2019-03-10T02:54:45.588Z,76.67
2019-03-10T02:55:45.557Z,76.46
2019-03-10T02:56:45.521Z,76.67
2019-03-10T02:57:45.514Z,76.46
2019-03-10T02:58:45.508Z,76.87
2019-03-10T02:59:45.527Z,76.25
2019-03-10T03:00:45.479Z,76.67
2019-03-10T03:01:45.537Z,76.67
2019-03-10T03:02:45.453Z,76.87
2019-03-10T03:03:45.446Z,76.87
2019-03-10T03:04:45.495Z,77.08
2019-03-10T03:05:45.432Z,76.77
2019-03-10T03:06:45.414Z,76.56
2019-03-10T03:07:45.405Z,76.56
2019-03-10T03:08:45.416Z,76.87
2019-03-10T03:09:45.435Z,76.77
2019-03-10T03:10:45.367Z,76.67
2019-03-10T03:11:45.367Z,76.77
2019-03-10T03:12:45.344Z,77.08
2019-03-10T03:13:45.344Z,76.87
2019-03-10T03:14:45.361Z,76.98
2019-03-10T03:15:45.401Z,77.18
2019-03-10T03:16:45.304Z,77.49
2019-03-10T03:17:45.294Z,77.08
2019-03-10T03:18:45.274Z,76.77
2019-03-10T03:19:45.272Z,76.63
2019-03-10T03:20:45.284Z,76.67
2019-03-10T03:21:45.288Z,76.46
2019-03-10T03:22:45.284Z,76.67
2019-03-10T03:23:45.222Z,76.56
2019-03-10T03:24:45.224Z,76.63
2019-03-10T03:25:45.243Z,76.77
2019-03-10T03:26:45.779Z,76.46
2019-03-10T03:27:45.185Z,76.67
2019-03-10T03:28:45.200Z,76.56
2019-03-10T03:29:45.159Z,76.87
2019-03-10T03:30:45.155Z,76.67
2019-03-10T03:31:45.190Z,76.63
2019-03-10T03:32:45.158Z,76.84
2019-03-10T03:33:45.166Z,76.35
2019-03-10T03:34:45.124Z,75.63
2019-03-10T03:35:45.114Z,76.84
2019-03-10T03:36:45.087Z,76.98
2019-03-10T03:37:45.146Z,76.94
2019-03-10T03:38:45.061Z,76.94
2019-03-10T03:39:45.056Z,76.46
2019-03-10T03:40:45.076Z,76.77
2019-03-10T03:41:45.035Z,76.46
2019-03-10T03:42:45.060Z,77.08
2019-03-10T03:43:45.010Z,76.87
2019-03-10T03:44:44.999Z,76.87
2019-03-10T03:45:44.988Z,76.77
2019-03-10T03:46:45.035Z,77.39
2019-03-10T03:47:45.011Z,77.08
2019-03-10T03:48:44.952Z,77.70
2019-03-10T03:49:44.950Z,76.77
2019-03-10T03:50:44.929Z,74.98
2019-03-10T03:51:44.923Z,76.01
2019-03-10T03:52:44.979Z,76.67
2019-03-10T03:53:45.797Z,76.56
2019-03-10T03:54:44.882Z,77.59
2019-03-10T03:55:44.892Z,77.91
2019-03-10T03:56:44.870Z,78.83
2019-03-10T03:57:44.866Z,78.73
2019-03-10T03:58:44.925Z,79.38
2019-03-10T03:59:44.837Z,80.11
2019-03-10T04:00:44.819Z,80.42
2019-03-10T04:01:44.802Z,80.62
2019-03-10T04:02:44.812Z,79.90
2019-03-10T04:03:44.824Z,80.00
2019-03-10T04:04:44.841Z,79.49
2019-03-10T04:05:44.764Z,80.42
2019-03-10T04:06:44.770Z,80.62
2019-03-10T04:07:44.745Z,81.28
2019-03-10T04:08:44.740Z,82.73
2019-03-10T04:09:44.807Z,82.31
2019-03-10T04:10:44.712Z,83.07
2019-03-10T04:11:44.755Z,82.97
2019-03-10T04:12:44.700Z,84.94
2019-03-10T04:13:44.672Z,83.80
2019-03-10T04:14:44.709Z,84.00
2019-03-10T04:15:44.649Z,85.14
2019-03-10T04:16:44.645Z,85.04
2019-03-10T04:17:44.642Z,85.24
2019-03-10T04:18:44.714Z,86.69
2019-03-10T04:19:45.327Z,87.35
2019-03-10T04:20:44.628Z,86.52
2019-03-10T04:21:44.581Z,85.18
2019-03-10T04:22:44.585Z,85.08
2019-03-10T04:23:44.564Z,84.87
2019-03-10T04:24:48.802Z,85.49
2019-03-10T04:25:44.540Z,85.94
2019-03-10T04:26:44.583Z,86.73
2019-03-10T04:27:44.517Z,86.83
2019-03-10T04:28:44.516Z,87.39
2019-03-10T04:29:53.294Z,86.88
2019-03-10T04:30:44.519Z,86.57
2019-03-10T04:31:44.487Z,85.74
2019-03-10T04:32:44.536Z,85.32
2019-03-10T04:33:44.486Z,86.57
2019-03-10T04:34:44.454Z,87.81
2019-03-10T05:51:50.626Z,98.33
2019-03-10T05:52:50.181Z,97.39
2019-03-10T05:53:49.276Z,97.97
2019-03-10T05:54:49.202Z,98.28
2019-03-10T05:55:49.189Z,98.33
2019-03-10T05:56:49.205Z,98.33
2019-03-10T05:57:49.204Z,98.54
2019-03-10T05:58:49.170Z,98.02
2019-03-10T05:59:49.149Z,98.64
2019-03-10T06:00:49.137Z,98.22
2019-03-10T06:01:49.157Z,98.33
2019-03-10T06:02:49.099Z,98.54
2019-03-10T06:03:49.105Z,98.54
2019-03-10T06:04:49.083Z,98.85
2019-03-10T06:05:49.112Z,98.33
2019-03-10T06:06:50.819Z,98.33
2019-03-10T06:07:49.088Z,98.12
2019-03-10T06:08:49.039Z,97.81
2019-03-10T06:09:49.087Z,98.64
2019-03-10T06:10:49.017Z,98.02
2019-03-10T06:11:49.011Z,98.33
2019-03-10T06:12:49.114Z,98.12
2019-03-10T06:13:48.978Z,98.22
2019-03-10T06:14:49.051Z,98.02
2019-03-10T06:15:49.021Z,98.74
2019-03-10T06:16:49.010Z,98.43
2019-03-10T06:17:53.873Z,98.17
2019-03-10T06:18:48.992Z,98.64
2019-03-10T06:19:48.928Z,98.33
2019-03-10T06:20:48.935Z,98.54
2019-03-10T06:21:48.932Z,98.43
2019-03-10T06:22:50.849Z,98.43
2019-03-10T06:23:48.913Z,98.43
2019-03-10T06:24:49.065Z,98.54
2019-03-10T06:25:48.864Z,98.43
2019-03-10T06:26:48.839Z,98.22
2019-03-10T06:27:48.835Z,98.54
2019-03-10T06:28:50.994Z,98.33
2019-03-10T06:29:48.838Z,98.64
2019-03-10T06:30:48.815Z,98.74
2019-03-10T06:31:48.787Z,98.39
2019-03-10T06:32:48.814Z,99.05
2019-03-10T06:33:49.329Z,98.43
2019-03-10T06:34:48.814Z,98.43
2019-03-10T06:35:48.820Z,98.95
2019-03-10T06:36:48.747Z,98.74
2019-03-10T06:37:48.753Z,98.85
2019-03-10T06:38:55.221Z,98.64
2019-03-10T06:39:48.738Z,98.43
2019-03-10T06:40:48.694Z,98.91
2019-03-10T06:41:48.689Z,98.33
2019-03-10T06:42:48.680Z,98.60
2019-03-10T06:43:52.153Z,98.39
2019-03-10T06:44:48.680Z,99.22
2019-03-10T06:45:48.651Z,99.01
2019-03-10T06:46:48.642Z,98.91
2019-03-10T06:47:48.661Z,99.68
2019-03-10T06:48:48.611Z,98.70
2019-03-10T06:49:57.842Z,99.05
2019-03-10T06:50:48.590Z,98.91
2019-03-10T06:51:48.563Z,99.43
2019-03-10T06:52:48.595Z,99.11
2019-03-10T06:53:48.557Z,99.01
2019-03-10T06:54:49.388Z,99.22
2019-03-10T06:55:48.528Z,99.11
2019-03-10T06:56:48.563Z,99.01
2019-03-10T06:57:48.515Z,99.01
2019-03-10T06:58:48.532Z,99.63
2019-03-10T06:59:50.028Z,99.22
2019-03-10T07:00:48.496Z,99.01
2019-03-10T07:01:48.462Z,99.11
2019-03-10T07:02:48.505Z,99.52
2019-03-10T07:03:48.467Z,99.52
2019-03-10T07:04:48.472Z,99.22
2019-03-10T07:05:50.331Z,99.11
2019-03-10T07:06:48.433Z,99.07
2019-03-10T07:07:48.497Z,99.63
2019-03-10T07:08:48.505Z,99.84
2019-03-10T07:09:48.487Z,99.01
2019-03-10T07:10:48.521Z,99.63
2019-03-10T07:11:48.448Z,99.01
2019-03-10T07:12:48.399Z,99.11
2019-03-10T07:13:48.387Z,99.11
2019-03-10T07:14:48.483Z,99.11
2019-03-10T07:15:48.438Z,99.01
2019-03-10T07:16:48.324Z,98.96
2019-03-10T07:17:48.390Z,98.96
2019-03-10T07:18:48.396Z,99.48
2019-03-10T07:19:48.507Z,99.01
2019-03-10T07:20:48.338Z,99.52
2019-03-10T07:21:49.851Z,99.27
2019-03-10T07:22:48.273Z,99.38
2019-03-10T07:23:48.239Z,98.96
2019-03-10T07:24:48.310Z,98.96
2019-03-10T07:25:48.239Z,98.96
2019-03-10T07:26:48.848Z,99.27
2019-03-10T07:27:48.208Z,98.80
2019-03-10T07:28:48.228Z,99.17
2019-03-10T07:29:48.157Z,98.96
2019-03-10T07:30:48.154Z,99.07
2019-03-10T07:32:12.064Z,99.38
2019-03-10T07:32:48.152Z,99.38
2019-03-10T07:33:48.223Z,98.96
2019-03-10T07:34:48.177Z,99.27
2019-03-10T07:35:48.142Z,99.17
2019-03-10T07:36:58.802Z,99.38
2019-03-10T07:37:48.238Z,99.48
2019-03-10T07:38:48.328Z,99.17
2019-03-10T07:39:48.143Z,98.75
2019-03-10T07:40:49.811Z,98.75
2019-03-10T07:41:48.100Z,98.44
2019-03-10T07:42:48.023Z,98.96
2019-03-10T07:43:48.162Z,98.86
2019-03-10T07:44:48.006Z,98.34
2019-03-10T07:45:47.984Z,98.24
2019-03-10T07:46:48.059Z,97.93
2019-03-10T07:47:47.963Z,98.13
2019-03-10T07:48:47.966Z,98.13
2019-03-10T07:49:47.949Z,98.44
2019-03-10T07:50:47.932Z,98.24
2019-03-10T07:51:47.993Z,98.24
2019-03-10T07:52:47.966Z,98.03
2019-03-10T07:53:47.901Z,98.24
2019-03-10T07:54:47.940Z,98.55
2019-03-10T07:55:47.898Z,98.24
2019-03-10T07:56:47.880Z,98.03
2019-03-10T07:57:47.985Z,98.44
2019-03-10T07:58:47.935Z,98.75
2019-03-10T07:59:47.936Z,98.03
2019-03-10T08:00:47.900Z,98.24
2019-03-10T08:01:47.895Z,98.34
2019-03-10T08:02:51.145Z,98.13
2019-03-10T08:03:47.828Z,98.34
2019-03-10T08:04:47.836Z,97.72
2019-03-10T08:05:47.799Z,98.44
2019-03-10T08:06:47.900Z,98.30
2019-03-10T08:07:47.905Z,98.19
2019-03-10T08:08:47.794Z,97.78
2019-03-10T08:09:47.814Z,97.88
2019-03-10T08:10:48.040Z,98.19
2019-03-10T08:11:48.034Z,97.88
2019-03-10T08:54:25.252Z,97.32
2019-03-10T08:55:14.905Z,95.92
2019-03-10T08:56:15.750Z,96.44
2019-03-10T08:57:15.326Z,96.91
2019-03-10T08:58:14.747Z,96.08
